Time;durP1;ratioP1;P1;durP2;ratioP2;P2;SDS_P1;SDS_P2;PMS_P1;PMS_P2;Temp;Humidity;BMP_temperature;BMP_pressure;BME280_temperature;BME280_humidity;BME280_pressure;Samples;Min_cycle;Max_cycle;Signal;HPM_P1;HPM_P2
2022/09/16 00:01:35;;;;;;;;;;;;;;;;;;10446183;22;19925;-64
2022/09/16 00:06:37;;;;;;;;;;;;;;;;;;10456674;28;19928;-64
2022/09/16 00:11:39;;;;;;;;;;;;;;;;;;10455778;28;19924;-64
2022/09/16 00:16:41;;;;;;;;;;;;;;;;;;10453671;28;20330;-64
2022/09/16 00:21:43;;;;;;;;;;;;;;;;;;10455708;28;20447;-64
2022/09/16 00:26:45;;;;;;;;;;;;;;;;;;10454440;28;19924;-64
2022/09/16 00:31:47;;;;;;;;;;;;;;;;;;10455625;28;19928;-64
2022/09/16 00:36:49;;;;;;;;;;;;;;;;;;10452660;28;19968;-64
2022/09/16 00:41:51;;;;;;;;;;;;;;;;;;10460500;28;19925;-64
2022/09/16 00:46:53;;;;;;;;;;;;;;;;;;10463542;28;19925;-64
2022/09/16 00:51:55;;;;;;;;;;;;;;;;;;10460854;28;19929;-64
2022/09/16 00:56:57;;;;;;;;;;;;;;;;;;10462957;28;19924;-64
2022/09/16 01:01:59;;;;;;;;;;;;;;;;;;10461869;28;20368;-64
2022/09/16 01:07:01;;;;;;;;;;;;;;;;;;10461217;28;19929;-64
2022/09/16 01:12:03;;;;;;;;;;;;;;;;;;10460962;28;19932;-64
2022/09/16 01:17:05;;;;;;;;;;;;;;;;;;10462142;28;19928;-64
2022/09/16 01:22:07;;;;;;;;;;;;;;;;;;10461237;28;19994;-64
2022/09/16 01:27:10;;;;;;;;;;;;;;;;;;10459629;28;19932;-64
2022/09/16 01:32:12;;;;;;;;;;;;;;;;;;10460982;28;20402;-64
2022/09/16 01:37:14;;;;;;;;;;;;;;;;;;10460127;28;19979;-64
2022/09/16 01:42:16;;;;;;;;;;;;;;;;;;10460225;28;19979;-64
2022/09/16 01:47:20;;;;;;;;;;;;;;;;;;10459681;28;19925;-63
2022/09/16 01:52:22;;;;;;;;;;;;;;;;;;10459868;28;19932;-64
2022/09/16 01:57:24;;;;;;;;;;;;;;;;;;10460594;28;19924;-63
2022/09/16 02:02:27;;;;;;;;;;;;;;;;;;10457719;28;19925;-63
2022/09/16 02:07:29;;;;;;;;;;;;;;;;;;10460243;28;19925;-63
2022/09/16 02:12:31;;;;;;;;;;;;;;;;;;10458734;28;19955;-63
2022/09/16 02:17:33;;;;;;;;;;;;;;;;;;10458714;28;19951;-64
2022/09/16 02:22:35;;;;;;;;;;;;;;;;;;10459515;28;19924;-65
2022/09/16 02:27:37;;;;;;;;;;;;;;;;;;10458861;28;19925;-64
2022/09/16 02:32:39;;;;;;;;;;;;;;;;;;10457364;28;19971;-64
2022/09/16 02:37:42;;;;;;;;;;;;;;;;;;10458991;28;19980;-64
2022/09/16 02:42:44;;;;;;;;;;;;;;;;;;10458692;28;19951;-64
2022/09/16 02:47:46;;;;;;;;;;;;;;;;;;10457861;28;19925;-65
2022/09/16 02:52:48;;;;;;;;;;;;;;;;;;10458435;28;19928;-65
2022/09/16 02:57:50;;;;;;;;;;;;;;;;;;10457596;28;20441;-65
2022/09/16 03:02:52;;;;;;;;;;;;;;;;;;10456170;28;19928;-64
2022/09/16 03:07:54;;;;;;;;;;;;;;;;;;10457357;28;20008;-64
2022/09/16 03:12:56;;;;;;;;;;;;;;;;;;10456763;28;19932;-65
2022/09/16 03:17:58;;;;;;;;;;;;;;;;;;10457038;28;19950;-64
2022/09/16 03:23:00;;;;;;;;;;;;;;;;;;10456854;28;20335;-64
2022/09/16 03:28:02;;;;;;;;;;;;;;;;;;10455999;28;19971;-64
2022/09/16 03:33:05;;;;;;;;;;;;;;;;;;10457347;28;19925;-64
2022/09/16 03:38:07;;;;;;;;;;;;;;;;;;10455938;28;19925;-64
2022/09/16 03:43:09;;;;;;;;;;;;;;;;;;10456543;28;19924;-64
2022/09/16 03:48:11;;;;;;;;;;;;;;;;;;10456367;28;19978;-64
2022/09/16 03:53:13;;;;;;;;;;;;;;;;;;10456397;28;19998;-64
2022/09/16 03:58:15;;;;;;;;;;;;;;;;;;10455409;28;19924;-64
2022/09/16 04:03:17;;;;;;;;;;;;;;;;;;10456044;28;20368;-64
2022/09/16 04:08:19;;;;;;;;;;;;;;;;;;10455339;28;20383;-64
2022/09/16 04:13:21;;;;;;;;;;;;;;;;;;10455995;28;20414;-64
2022/09/16 04:18:23;;;;;;;;;;;;;;;;;;10463058;28;19928;-64
2022/09/16 04:23:25;;;;;;;;;;;;;;;;;;10464293;28;19925;-64
2022/09/16 04:28:27;;;;;;;;;;;;;;;;;;10462641;28;20441;-64
2022/09/16 04:33:29;;;;;;;;;;;;;;;;;;10463921;28;19929;-63
2022/09/16 04:38:31;;;;;;;;;;;;;;;;;;10463024;28;19979;-64
2022/09/16 04:43:33;;;;;;;;;;;;;;;;;;10462080;28;19929;-64
2022/09/16 04:48:35;;;;;;;;;;;;;;;;;;10461991;28;20376;-65
2022/09/16 04:53:37;;;;;;;;;;;;;;;;;;10463093;28;19975;-64
2022/09/16 04:58:39;;;;;;;;;;;;;;;;;;10461920;28;19932;-64
2022/09/16 05:03:41;;;;;;;;;;;;;;;;;;10462056;28;19925;-64
2022/09/16 05:08:44;;;;;;;;;;;;;;;;;;10462525;28;19929;-65
2022/09/16 05:13:46;;;;;;;;;;;;;;;;;;10460617;28;20376;-65
2022/09/16 05:18:48;;;;;;;;;;;;;;;;;;10462075;28;19925;-65
2022/09/16 05:23:50;;;;;;;;;;;;;;;;;;10462069;28;19925;-64
2022/09/16 05:28:52;;;;;;;;;;;;;;;;;;10459931;28;20368;-65
2022/09/16 05:33:54;;;;;;;;;;;;;;;;;;10460932;28;19929;-64
2022/09/16 05:38:56;;;;;;;;;;;;;;;;;;10461326;28;19929;-64
2022/09/16 05:44:18;;;;;;;;;;;;;;;;;;10461221;28;20011;-64
2022/09/16 05:49:20;;;;;;;;;;;;;;;;;;10459247;28;20375;-64
2022/09/16 05:54:23;;;;;;;;;;;;;;;;;;10460150;28;19925;-64
2022/09/16 05:59:26;;;;;;;;;;;;;;;;;;10460480;28;19978;-64
2022/09/16 06:04:28;;;;;;;;;;;;;;;;;;10459639;28;19986;-64
2022/09/16 06:09:30;;;;;;;;;;;;;;;;;;10460165;28;19951;-64
2022/09/16 06:14:32;;;;;;;;;;;;;;;;;;10459975;28;19979;-64
2022/09/16 06:19:34;;;;;;;;;;;;;;;;;;10459685;28;19928;-64
2022/09/16 06:24:36;;;;;;;;;;;;;;;;;;10459562;28;19974;-65
2022/09/16 06:29:38;;;;;;;;;;;;;;;;;;10459383;28;19925;-64
2022/09/16 06:34:40;;;;;;;;;;;;;;;;;;10458524;28;19986;-64
2022/09/16 06:39:42;;;;;;;;;;;;;;;;;;10458459;28;19974;-64
2022/09/16 06:44:44;;;;;;;;;;;;;;;;;;10458754;28;19928;-64
2022/09/16 06:49:46;;;;;;;;;;;;;;;;;;10458615;28;19982;-64
2022/09/16 06:54:49;;;;;;;;;;;;;;;;;;10457806;28;20322;-64
2022/09/16 06:59:51;;;;;;;;;;;;;;;;;;10456758;28;21275;-64
2022/09/16 07:04:53;;;;;;;;;;;;;;;;;;10457515;28;20400;-64
2022/09/16 07:09:56;;;;;;;;;;;;;;;;;;10457967;28;19928;-64
2022/09/16 07:14:58;;;;;;;;;;;;;;;;;;10457805;28;19978;-65
2022/09/16 07:20:00;;;;;;;;;;;;;;;;;;10456963;28;20253;-65
2022/09/16 07:25:02;;;;;;;;;;;;;;;;;;10457559;28;19928;-64
2022/09/16 07:30:04;;;;;;;;;;;;;;;;;;10457478;28;19982;-65
2022/09/16 07:35:10;;;;;;;;;;;;;;;;;;10458164;28;19975;-65
2022/09/16 07:40:12;;;;;;;;;;;;;;;;;;10456545;28;20287;-65
2022/09/16 07:45:14;;;;;;;;;;;;;;;;;;10456496;28;20307;-65
2022/09/16 07:50:16;;;;;;;;;;;;;;;;;;10459554;28;19975;-65
2022/09/16 07:55:19;;;;;;;;;;;;;;;;;;10464787;28;20334;-65
2022/09/16 08:00:21;;;;;;;;;;;;;;;;;;10464402;28;19924;-66
2022/09/16 08:05:23;;;;;;;;;;;;;;;;;;10464408;28;19925;-65
2022/09/16 08:10:25;;;;;;;;;;;;;;;;;;10464791;28;19924;-66
2022/09/16 08:15:31;;;;;;;;;;;;;;;;;;10464643;28;19925;-66
2022/09/16 08:20:33;;;;;;;;;;;;;;;;;;10464386;28;19929;-66
2022/09/16 08:25:35;;;;;;;;;;;;;;;;;;10464518;28;19924;-66
2022/09/16 08:30:37;;;;;;;;;;;;;;;;;;10463434;28;19925;-66
2022/09/16 08:35:39;;;;;;;;;;;;;;;;;;10463224;28;19991;-66
2022/09/16 08:40:41;;;;;;;;;;;;;;;;;;10463659;28;19924;-66
2022/09/16 08:45:43;;;;;;;;;;;;;;;;;;10462858;28;20367;-66
2022/09/16 08:50:45;;;;;;;;;;;;;;;;;;10462954;28;19931;-65
2022/09/16 08:55:48;;;;;;;;;;;;;;;;;;10463089;28;19974;-66
2022/09/16 09:00:51;;;;;;;;;;;;;;;;;;10462656;28;19933;-66
2022/09/16 09:05:53;;;;;;;;;;;;;;;;;;10462723;28;19925;-66
2022/09/16 09:10:56;;;;;;;;;;;;;;;;;;10462533;28;19975;-66
2022/09/16 09:15:58;;;;;;;;;;;;;;;;;;10461673;28;20448;-66
2022/09/16 09:21:00;;;;;;;;;;;;;;;;;;10461517;28;19924;-66
2022/09/16 09:26:02;;;;;;;;;;;;;;;;;;10461982;28;19970;-65
2022/09/16 09:31:04;;;;;;;;;;;;;;;;;;10461769;28;19965;-65
2022/09/16 09:36:11;;;;;;;;;;;;;;;;;;10460977;28;20308;-65
2022/09/16 09:41:13;;;;;;;;;;;;;;;;;;10461303;28;19925;-65
2022/09/16 09:46:15;;;;;;;;;;;;;;;;;;10460500;28;20422;-64
2022/09/16 09:51:17;;;;;;;;;;;;;;;;;;10460310;28;19925;-65
2022/09/16 09:56:19;;;;;;;;;;;;;;;;;;10460062;28;19971;-65
2022/09/16 10:01:21;;;;;;;;;;;;;;;;;;10460052;28;19925;-65
2022/09/16 10:06:24;;;;;;;;;;;;;;;;;;10459695;28;19967;-66
2022/09/16 10:11:26;;;;;;;;;;;;;;;;;;10459752;28;19928;-65
2022/09/16 10:16:28;;;;;;;;;;;;;;;;;;10458890;28;20429;-65
2022/09/16 10:21:30;;;;;;;;;;;;;;;;;;10459051;28;20433;-66
2022/09/16 10:26:32;;;;;;;;;;;;;;;;;;10458385;28;19925;-66
2022/09/16 10:31:34;;;;;;;;;;;;;;;;;;10459300;28;19933;-65
2022/09/16 10:36:36;;;;;;;;;;;;;;;;;;10459374;28;19932;-66
2022/09/16 10:41:38;;;;;;;;;;;;;;;;;;10458273;28;19951;-65
2022/09/16 10:46:40;;;;;;;;;;;;;;;;;;10458735;28;19978;-66
2022/09/16 10:51:43;;;;;;;;;;;;;;;;;;10457918;28;20334;-66
2022/09/16 10:56:45;;;;;;;;;;;;;;;;;;10458415;28;19925;-66
2022/09/16 11:01:47;;;;;;;;;;;;;;;;;;10457366;28;19925;-66
2022/09/16 11:06:50;;;;;;;;;;;;;;;;;;10457481;28;19928;-66
2022/09/16 11:11:52;;;;;;;;;;;;;;;;;;10457978;28;19928;-66
2022/09/16 11:16:54;;;;;;;;;;;;;;;;;;10457210;28;20402;-67
2022/09/16 11:21:56;;;;;;;;;;;;;;;;;;10457603;28;19925;-67
2022/09/16 11:26:58;;;;;;;;;;;;;;;;;;10456783;28;19925;-66
2022/09/16 11:32:00;;;;;;;;;;;;;;;;;;10457333;28;19924;-67
2022/09/16 11:37:02;;;;;;;;;;;;;;;;;;10456225;28;20326;-66
2022/09/16 11:42:04;;;;;;;;;;;;;;;;;;10457153;28;19929;-66
2022/09/16 11:47:06;;;;;;;;;;;;;;;;;;10456487;28;19928;-66
2022/09/16 11:52:09;;;;;;;;;;;;;;;;;;10456399;28;20327;-66
2022/09/16 11:57:11;;;;;;;;;;;;;;;;;;10456901;28;19924;-66
2022/09/16 12:02:15;;;;;;;;;;;;;;;;;;10456256;28;19925;-66
2022/09/16 12:07:17;;;;;;;;;;;;;;;;;;10456730;28;19925;-66
2022/09/16 12:12:19;;;;;;;;;;;;;;;;;;10456601;28;19924;-65
2022/09/16 12:17:21;;;;;;;;;;;;;;;;;;10446654;22;19925;-59
2022/09/16 12:22:23;;;;;;;;;;;;;;;;;;10415224;28;19929;-58
2022/09/16 12:27:25;;;;;;;;;;;;;;;;;;10414520;28;20371;-59
2022/09/16 12:32:27;;;;;;;;;;;;;;;;;;10415109;28;19925;-58
2022/09/16 12:37:30;;;;;;;;;;;;;;;;;;10419030;28;19975;-58
2022/09/16 12:42:32;;;;;;;;;;;;;;;;;;10421738;28;19952;-57
2022/09/16 12:47:34;;;;;;;;;;;;;;;;;;10421587;28;20342;-58
2022/09/16 12:52:36;;;;;;;;;;;;;;;;;;10421468;28;19929;-58
2022/09/16 12:57:38;;;;;;;;;;;;;;;;;;10421189;28;19975;-58
2022/09/16 13:02:40;;;;;;;;;;;;;;;;;;10421615;28;19925;-58
2022/09/16 13:07:42;;;;;;;;;;;;;;;;;;10420846;28;19936;-59
2022/09/16 13:12:44;;;;;;;;;;;;;;;;;;10421268;28;19929;-59
2022/09/16 13:17:51;;;;;;;;;;;;;;;;;;10420441;28;19990;-59
2022/09/16 13:22:53;;;;;;;;;;;;;;;;;;10420202;28;20458;-58
2022/09/16 13:27:56;;;;;;;;;;;;;;;;;;10420698;28;19972;-59
2022/09/16 13:32:58;;;;;;;;;;;;;;;;;;10420482;28;20043;-59
2022/09/16 13:38:00;;;;;;;;;;;;;;;;;;10419663;28;19925;-59
2022/09/16 13:43:02;;;;;;;;;;;;;;;;;;10420030;28;19925;-59
2022/09/16 13:48:04;;;;;;;;;;;;;;;;;;10418096;28;20372;-58
2022/09/16 13:53:06;;;;;;;;;;;;;;;;;;10419721;28;19929;-58
2022/09/16 13:58:08;;;;;;;;;;;;;;;;;;10419507;28;19925;-59
2022/09/16 14:03:10;;;;;;;;;;;;;;;;;;10419280;28;19979;-59
2022/09/16 14:08:12;;;;;;;;;;;;;;;;;;10418505;28;20326;-59
2022/09/16 14:13:15;;;;;;;;;;;;;;;;;;10418859;28;19925;-58
2022/09/16 14:18:17;;;;;;;;;;;;;;;;;;10417866;28;19983;-58
2022/09/16 14:23:19;;;;;;;;;;;;;;;;;;10417842;28;19929;-59
2022/09/16 14:28:21;;;;;;;;;;;;;;;;;;10418307;28;19926;-58
2022/09/16 14:33:23;;;;;;;;;;;;;;;;;;10418154;28;19940;-58
2022/09/16 14:38:25;;;;;;;;;;;;;;;;;;10417941;28;19925;-59
2022/09/16 14:43:45;;;;;;;;;;;;;;;;;;10417679;28;19971;-59
2022/09/16 14:48:47;;;;;;;;;;;;;;;;;;10416927;28;20279;-59
2022/09/16 14:53:49;;;;;;;;;;;;;;;;;;10417358;28;19926;-59
2022/09/16 14:59:11;;;;;;;;;;;;;;;;;;10416171;28;20386;-58
2022/09/16 15:04:13;;;;;;;;;;;;;;;;;;10416948;28;19937;-59
2022/09/16 15:09:16;;;;;;;;;;;;;;;;;;10416836;28;19925;-58
2022/09/16 15:14:18;;;;;;;;;;;;;;;;;;10416126;28;20325;-58
2022/09/16 15:19:20;;;;;;;;;;;;;;;;;;10415931;28;19983;-58
2022/09/16 15:24:23;;;;;;;;;;;;;;;;;;10416341;28;19925;-58
2022/09/16 15:29:25;;;;;;;;;;;;;;;;;;10415676;28;19932;-58
2022/09/16 15:34:28;;;;;;;;;;;;;;;;;;10416177;28;19929;-58
2022/09/16 15:39:30;;;;;;;;;;;;;;;;;;10416133;28;19929;-58
2022/09/16 15:44:32;;;;;;;;;;;;;;;;;;10415282;28;20373;-58
2022/09/16 15:49:38;;;;;;;;;;;;;;;;;;10415993;28;19925;-58
2022/09/16 15:54:40;;;;;;;;;;;;;;;;;;10415830;28;19925;-58
2022/09/16 15:59:42;;;;;;;;;;;;;;;;;;10415110;28;20288;-58
2022/09/16 16:04:45;;;;;;;;;;;;;;;;;;10415132;28;20342;-58
2022/09/16 16:09:47;;;;;;;;;;;;;;;;;;10414909;28;19952;-58
2022/09/16 16:14:50;;;;;;;;;;;;;;;;;;10422772;28;20364;-58
2022/09/16 16:19:52;;;;;;;;;;;;;;;;;;10423321;28;19925;-58
2022/09/16 16:24:58;;;;;;;;;;;;;;;;;;10422599;28;20318;-58
2022/09/16 16:30:00;;;;;;;;;;;;;;;;;;10422356;28;20273;-57
2022/09/16 16:35:02;;;;;;;;;;;;;;;;;;10422763;28;19971;-57
2022/09/16 16:40:04;;;;;;;;;;;;;;;;;;10421868;28;20345;-58
2022/09/16 16:45:06;;;;;;;;;;;;;;;;;;10422455;28;19925;-58
2022/09/16 16:50:08;;;;;;;;;;;;;;;;;;10417226;28;19929;-58
2022/09/16 16:55:11;;;;;;;;;;;;;;;;;;10419168;28;20327;-58
2022/09/16 17:00:13;;;;;;;;;;;;;;;;;;10420317;28;19995;-58
2022/09/16 17:05:15;;;;;;;;;;;;;;;;;;10420968;28;20430;-57
2022/09/16 17:10:17;;;;;;;;;;;;;;;;;;10421075;28;19983;-57
2022/09/16 17:15:19;;;;;;;;;;;;;;;;;;10420341;28;19932;-57
2022/09/16 17:20:22;;;;;;;;;;;;;;;;;;10419324;28;20442;-57
2022/09/16 17:25:24;;;;;;;;;;;;;;;;;;10420534;28;19929;-57
2022/09/16 17:30:26;;;;;;;;;;;;;;;;;;10420631;28;19925;-57
2022/09/16 17:35:28;;;;;;;;;;;;;;;;;;10420290;28;19976;-57
2022/09/16 17:40:31;;;;;;;;;;;;;;;;;;10417490;28;19925;-57
2022/09/16 17:45:33;;;;;;;;;;;;;;;;;;10419280;28;19925;-57
2022/09/16 17:50:36;;;;;;;;;;;;;;;;;;10417534;28;19932;-57
2022/09/16 17:55:38;;;;;;;;;;;;;;;;;;10421889;28;19971;-57
2022/09/16 18:00:40;;;;;;;;;;;;;;;;;;10415012;28;19983;-58
2022/09/16 18:05:43;;;;;;;;;;;;;;;;;;10418524;28;19925;-57
2022/09/16 18:10:45;;;;;;;;;;;;;;;;;;10421354;28;20334;-58
2022/09/16 18:15:47;;;;;;;;;;;;;;;;;;10418341;28;19926;-56
2022/09/16 18:20:50;;;;;;;;;;;;;;;;;;10416959;28;19955;-58
2022/09/16 18:25:52;;;;;;;;;;;;;;;;;;10418423;28;19925;-58
2022/09/16 18:30:54;;;;;;;;;;;;;;;;;;10416812;28;19929;-57
2022/09/16 18:35:56;;;;;;;;;;;;;;;;;;10416499;28;19925;-56
2022/09/16 18:40:58;;;;;;;;;;;;;;;;;;10415981;28;20331;-56
2022/09/16 18:46:00;;;;;;;;;;;;;;;;;;10417719;28;19925;-55
2022/09/16 18:51:04;;;;;;;;;;;;;;;;;;10416816;28;20686;-56
2022/09/16 18:56:06;;;;;;;;;;;;;;;;;;10415064;28;20331;-55
2022/09/16 19:01:08;;;;;;;;;;;;;;;;;;10415496;28;19925;-55
2022/09/16 19:06:10;;;;;;;;;;;;;;;;;;10415237;28;19925;-55
2022/09/16 19:11:12;;;;;;;;;;;;;;;;;;10416890;28;19979;-57
2022/09/16 19:16:15;;;;;;;;;;;;;;;;;;10415163;28;19937;-57
2022/09/16 19:21:17;;;;;;;;;;;;;;;;;;10415601;28;19952;-56
2022/09/16 19:26:19;;;;;;;;;;;;;;;;;;10410056;28;19984;-57
2022/09/16 19:31:21;;;;;;;;;;;;;;;;;;10413800;28;19926;-57
2022/09/16 19:36:24;;;;;;;;;;;;;;;;;;10414488;28;20440;-57
2022/09/16 19:41:26;;;;;;;;;;;;;;;;;;10414956;28;19926;-57
2022/09/16 19:46:28;;;;;;;;;;;;;;;;;;10420616;28;19925;-56
2022/09/16 19:51:31;;;;;;;;;;;;;;;;;;10423048;28;20300;-55
2022/09/16 19:56:34;;;;;;;;;;;;;;;;;;10424347;28;20012;-55
2022/09/16 20:01:36;;;;;;;;;;;;;;;;;;10421738;28;19925;-57
2022/09/16 20:06:38;;;;;;;;;;;;;;;;;;10423919;28;19925;-56
2022/09/16 20:11:40;;;;;;;;;;;;;;;;;;10423770;28;19925;-55
2022/09/16 20:16:42;;;;;;;;;;;;;;;;;;10422081;28;19925;-57
2022/09/16 20:21:45;;;;;;;;;;;;;;;;;;10422265;28;20028;-56
2022/09/16 20:26:47;;;;;;;;;;;;;;;;;;10422148;28;19987;-56
2022/09/16 20:31:49;;;;;;;;;;;;;;;;;;10422331;28;19947;-55
2022/09/16 20:36:51;;;;;;;;;;;;;;;;;;10421127;28;20020;-57
2022/09/16 20:41:53;;;;;;;;;;;;;;;;;;10419673;28;19979;-55
2022/09/16 20:46:55;;;;;;;;;;;;;;;;;;10421026;28;20339;-55
2022/09/16 20:51:57;;;;;;;;;;;;;;;;;;10420980;28;19925;-56
2022/09/16 20:56:59;;;;;;;;;;;;;;;;;;10420374;28;19926;-57
2022/09/16 21:02:03;;;;;;;;;;;;;;;;;;10420523;28;19955;-57
2022/09/16 21:07:05;;;;;;;;;;;;;;;;;;10419294;28;20403;-57
2022/09/16 21:12:07;;;;;;;;;;;;;;;;;;10416793;28;19929;-54
2022/09/16 21:17:09;;;;;;;;;;;;;;;;;;10420377;28;19928;-57
2022/09/16 21:22:14;;;;;;;;;;;;;;;;;;10418325;28;19929;-53
2022/09/16 21:27:16;;;;;;;;;;;;;;;;;;10419880;28;19925;-57
2022/09/16 21:32:18;;;;;;;;;;;;;;;;;;10420380;28;19948;-56
2022/09/16 21:37:20;;;;;;;;;;;;;;;;;;10419909;28;19928;-58
2022/09/16 21:42:22;;;;;;;;;;;;;;;;;;10418051;28;20441;-55
2022/09/16 21:47:24;;;;;;;;;;;;;;;;;;10420105;28;19929;-56
2022/09/16 21:52:26;;;;;;;;;;;;;;;;;;10419216;28;20011;-56
2022/09/16 21:57:28;;;;;;;;;;;;;;;;;;10419678;28;19980;-55
2022/09/16 22:02:30;;;;;;;;;;;;;;;;;;10417399;28;19971;-57
2022/09/16 22:07:33;;;;;;;;;;;;;;;;;;10418731;28;20011;-63
2022/09/16 22:12:35;;;;;;;;;;;;;;;;;;10419035;28;19936;-63
2022/09/16 22:17:37;;;;;;;;;;;;;;;;;;10415040;28;19926;-63
2022/09/16 22:22:39;;;;;;;;;;;;;;;;;;10417054;28;19979;-64
2022/09/16 22:27:41;;;;;;;;;;;;;;;;;;10418533;28;19929;-63
2022/09/16 22:32:43;;;;;;;;;;;;;;;;;;10417685;28;19971;-63
2022/09/16 22:37:45;;;;;;;;;;;;;;;;;;10416752;28;19929;-63
2022/09/16 22:42:47;;;;;;;;;;;;;;;;;;10416164;28;20372;-63
2022/09/16 22:47:49;;;;;;;;;;;;;;;;;;10416837;28;19925;-63
2022/09/16 22:52:51;;;;;;;;;;;;;;;;;;10417527;28;19971;-63
2022/09/16 22:57:53;;;;;;;;;;;;;;;;;;10416716;28;20364;-63
2022/09/16 23:02:55;;;;;;;;;;;;;;;;;;10416258;28;19983;-63
2022/09/16 23:07:57;;;;;;;;;;;;;;;;;;10416025;28;19925;-63
2022/09/16 23:12:59;;;;;;;;;;;;;;;;;;10416237;28;20077;-63
2022/09/16 23:18:01;;;;;;;;;;;;;;;;;;10415085;28;20327;-63
2022/09/16 23:23:03;;;;;;;;;;;;;;;;;;10414544;28;19925;-64
2022/09/16 23:28:05;;;;;;;;;;;;;;;;;;10413841;28;19975;-62
2022/09/16 23:33:08;;;;;;;;;;;;;;;;;;10416290;28;19979;-63
2022/09/16 23:38:10;;;;;;;;;;;;;;;;;;10415576;28;19925;-62
2022/09/16 23:43:12;;;;;;;;;;;;;;;;;;10414952;28;19971;-63
2022/09/16 23:48:14;;;;;;;;;;;;;;;;;;10413505;28;20335;-63
2022/09/16 23:53:16;;;;;;;;;;;;;;;;;;10415240;28;20380;-63
2022/09/16 23:58:18;;;;;;;;;;;;;;;;;;10415891;28;19971;-63
